sensor_id;sensor_type;location;lat;lon;timestamp;temperature;humidity
32476;DHT22;18929;48.008;10.882;2023-04-03T00:00:01;4.60;99.90
32476;DHT22;18929;48.008;10.882;2023-04-03T00:02:29;3.60;99.90
32476;DHT22;18929;48.008;10.882;2023-04-03T00:04:57;4.00;99.90
32476;DHT22;18929;48.008;10.882;2023-04-03T00:07:23;4.40;99.90
32476;DHT22;18929;48.008;10.882;2023-04-03T00:09:50;2.90;99.90
32476;DHT22;18929;48.008;10.882;2023-04-03T00:12:17;3.50;99.90
32476;DHT22;18929;48.008;10.882;2023-04-03T00:14:44;2.80;99.90
32476;DHT22;18929;48.008;10.882;2023-04-03T00:17:11;2.50;99.90
32476;DHT22;18929;48.008;10.882;2023-04-03T00:19:38;3.70;99.90
32476;DHT22;18929;48.008;10.882;2023-04-03T00:22:06;4.60;99.90
32476;DHT22;18929;48.008;10.882;2023-04-03T00:24:32;4.40;99.90
32476;DHT22;18929;48.008;10.882;2023-04-03T00:26:59;4.10;99.90
32476;DHT22;18929;48.008;10.882;2023-04-03T00:29:26;4.30;99.90
32476;DHT22;18929;48.008;10.882;2023-04-03T00:31:53;4.50;99.90
32476;DHT22;18929;48.008;10.882;2023-04-03T00:34:19;3.70;99.90
32476;DHT22;18929;48.008;10.882;2023-04-03T00:36:46;4.70;99.90
32476;DHT22;18929;48.008;10.882;2023-04-03T00:39:14;3.70;99.90
32476;DHT22;18929;48.008;10.882;2023-04-03T00:41:41;4.50;99.90
32476;DHT22;18929;48.008;10.882;2023-04-03T00:44:21;3.70;99.90
32476;DHT22;18929;48.008;10.882;2023-04-03T00:46:48;5.20;99.90
32476;DHT22;18929;48.008;10.882;2023-04-03T00:49:15;4.20;99.90
32476;DHT22;18929;48.008;10.882;2023-04-03T00:51:42;4.20;99.90
32476;DHT22;18929;48.008;10.882;2023-04-03T00:54:09;4.20;99.90
32476;DHT22;18929;48.008;10.882;2023-04-03T00:56:37;4.20;99.90
32476;DHT22;18929;48.008;10.882;2023-04-03T00:59:05;5.30;99.90
32476;DHT22;18929;48.008;10.882;2023-04-03T01:01:32;5.40;99.90
32476;DHT22;18929;48.008;10.882;2023-04-03T01:03:59;4.80;99.90
32476;DHT22;18929;48.008;10.882;2023-04-03T01:06:28;3.40;99.90
32476;DHT22;18929;48.008;10.882;2023-04-03T01:08:59;3.60;99.90
32476;DHT22;18929;48.008;10.882;2023-04-03T01:11:26;3.60;99.90
32476;DHT22;18929;48.008;10.882;2023-04-03T01:13:55;3.50;99.90
32476;DHT22;18929;48.008;10.882;2023-04-03T01:16:21;3.40;99.90
32476;DHT22;18929;48.008;10.882;2023-04-03T01:18:48;2.50;99.90
32476;DHT22;18929;48.008;10.882;2023-04-03T01:26:39;3.10;99.90
32476;DHT22;18929;48.008;10.882;2023-04-03T01:29:07;2.90;99.90
32476;DHT22;18929;48.008;10.882;2023-04-03T01:31:46;3.30;99.90
32476;DHT22;18929;48.008;10.882;2023-04-03T01:34:13;4.10;99.90
32476;DHT22;18929;48.008;10.882;2023-04-03T01:36:40;4.60;99.90
32476;DHT22;18929;48.008;10.882;2023-04-03T01:39:07;4.10;99.90
32476;DHT22;18929;48.008;10.882;2023-04-03T01:41:33;4.20;99.90
32476;DHT22;18929;48.008;10.882;2023-04-03T01:44:01;4.20;99.90
32476;DHT22;18929;48.008;10.882;2023-04-03T01:46:27;3.50;99.90
32476;DHT22;18929;48.008;10.882;2023-04-03T01:48:56;3.40;99.90
32476;DHT22;18929;48.008;10.882;2023-04-03T01:51:22;2.80;99.90
32476;DHT22;18929;48.008;10.882;2023-04-03T01:53:49;2.90;99.90
32476;DHT22;18929;48.008;10.882;2023-04-03T01:56:16;3.60;99.90
32476;DHT22;18929;48.008;10.882;2023-04-03T01:58:43;3.60;99.90
32476;DHT22;18929;48.008;10.882;2023-04-03T02:01:10;4.10;99.90
32476;DHT22;18929;48.008;10.882;2023-04-03T02:03:37;3.00;99.90
32476;DHT22;18929;48.008;10.882;2023-04-03T02:06:05;3.10;99.90
32476;DHT22;18929;48.008;10.882;2023-04-03T02:08:32;3.20;99.90
32476;DHT22;18929;48.008;10.882;2023-04-03T02:10:59;3.30;99.90
32476;DHT22;18929;48.008;10.882;2023-04-03T02:13:26;4.10;99.90
32476;DHT22;18929;48.008;10.882;2023-04-03T02:15:53;4.70;99.90
32476;DHT22;18929;48.008;10.882;2023-04-03T02:18:19;3.50;99.90
32476;DHT22;18929;48.008;10.882;2023-04-03T02:20:46;4.00;99.90
32476;DHT22;18929;48.008;10.882;2023-04-03T02:23:14;4.40;99.90
32476;DHT22;18929;48.008;10.882;2023-04-03T02:25:41;3.50;99.90
32476;DHT22;18929;48.008;10.882;2023-04-03T02:28:08;4.00;99.90
32476;DHT22;18929;48.008;10.882;2023-04-03T02:30:35;4.50;99.90
32476;DHT22;18929;48.008;10.882;2023-04-03T02:33:01;4.60;99.90
32476;DHT22;18929;48.008;10.882;2023-04-03T02:35:28;3.90;99.90
32476;DHT22;18929;48.008;10.882;2023-04-03T02:37:55;4.80;99.90
32476;DHT22;18929;48.008;10.882;2023-04-03T02:40:23;3.90;99.90
32476;DHT22;18929;48.008;10.882;2023-04-03T02:42:50;3.00;99.90
32476;DHT22;18929;48.008;10.882;2023-04-03T02:45:17;3.00;99.90
32476;DHT22;18929;48.008;10.882;2023-04-03T02:47:43;3.10;99.90
32476;DHT22;18929;48.008;10.882;2023-04-03T02:50:10;2.30;99.90
32476;DHT22;18929;48.008;10.882;2023-04-03T02:52:37;3.30;99.90
32476;DHT22;18929;48.008;10.882;2023-04-03T02:57:37;2.30;99.90
32476;DHT22;18929;48.008;10.882;2023-04-03T03:00:06;2.30;99.90
32476;DHT22;18929;48.008;10.882;2023-04-03T03:02:34;2.90;99.90
32476;DHT22;18929;48.008;10.882;2023-04-03T03:05:01;2.60;99.90
32476;DHT22;18929;48.008;10.882;2023-04-03T03:07:27;3.90;99.90
32476;DHT22;18929;48.008;10.882;2023-04-03T03:09:54;4.20;99.90
32476;DHT22;18929;48.008;10.882;2023-04-03T03:12:21;3.20;99.90
32476;DHT22;18929;48.008;10.882;2023-04-03T03:14:50;2.80;99.90
32476;DHT22;18929;48.008;10.882;2023-04-03T03:17:17;2.50;99.90
32476;DHT22;18929;48.008;10.882;2023-04-03T03:19:44;2.70;99.90
32476;DHT22;18929;48.008;10.882;2023-04-03T03:22:11;2.30;99.90
32476;DHT22;18929;48.008;10.882;2023-04-03T03:24:37;2.90;99.90
32476;DHT22;18929;48.008;10.882;2023-04-03T03:27:04;1.90;99.90
32476;DHT22;18929;48.008;10.882;2023-04-03T03:29:31;2.20;99.90
32476;DHT22;18929;48.008;10.882;2023-04-03T03:31:59;2.60;99.90
32476;DHT22;18929;48.008;10.882;2023-04-03T03:34:26;2.50;99.90
32476;DHT22;18929;48.008;10.882;2023-04-03T03:36:53;2.60;99.90
32476;DHT22;18929;48.008;10.882;2023-04-03T03:39:20;2.40;99.90
32476;DHT22;18929;48.008;10.882;2023-04-03T03:41:47;2.60;99.90
32476;DHT22;18929;48.008;10.882;2023-04-03T03:44:16;3.40;99.90
32476;DHT22;18929;48.008;10.882;2023-04-03T03:46:43;3.00;99.90
32476;DHT22;18929;48.008;10.882;2023-04-03T03:49:11;3.40;99.90
32476;DHT22;18929;48.008;10.882;2023-04-03T03:51:39;3.60;99.90
32476;DHT22;18929;48.008;10.882;2023-04-03T03:54:06;2.90;99.90
32476;DHT22;18929;48.008;10.882;2023-04-03T03:56:33;3.30;99.90
32476;DHT22;18929;48.008;10.882;2023-04-03T03:59:00;3.90;99.90
32476;DHT22;18929;48.008;10.882;2023-04-03T04:01:27;3.70;99.90
32476;DHT22;18929;48.008;10.882;2023-04-03T04:03:53;3.20;99.90
32476;DHT22;18929;48.008;10.882;2023-04-03T04:06:22;3.50;99.90
32476;DHT22;18929;48.008;10.882;2023-04-03T04:08:49;3.90;99.90
32476;DHT22;18929;48.008;10.882;2023-04-03T04:11:15;4.20;99.90
32476;DHT22;18929;48.008;10.882;2023-04-03T04:13:42;3.60;99.90
32476;DHT22;18929;48.008;10.882;2023-04-03T04:16:09;3.30;99.90
32476;DHT22;18929;48.008;10.882;2023-04-03T04:18:36;2.90;99.90
32476;DHT22;18929;48.008;10.882;2023-04-03T04:21:03;2.60;99.90
32476;DHT22;18929;48.008;10.882;2023-04-03T04:23:31;2.50;99.90
32476;DHT22;18929;48.008;10.882;2023-04-03T04:25:58;3.10;99.90
32476;DHT22;18929;48.008;10.882;2023-04-03T04:28:25;3.00;99.90
32476;DHT22;18929;48.008;10.882;2023-04-03T04:30:51;3.90;99.90
32476;DHT22;18929;48.008;10.882;2023-04-03T04:33:18;3.70;99.90
32476;DHT22;18929;48.008;10.882;2023-04-03T04:35:46;4.40;99.90
32476;DHT22;18929;48.008;10.882;2023-04-03T04:38:15;3.10;99.90
32476;DHT22;18929;48.008;10.882;2023-04-03T04:40:43;3.00;99.90
32476;DHT22;18929;48.008;10.882;2023-04-03T04:43:26;3.40;99.90
32476;DHT22;18929;48.008;10.882;2023-04-03T04:46:00;3.50;99.90
32476;DHT22;18929;48.008;10.882;2023-04-03T04:48:26;3.70;99.90
32476;DHT22;18929;48.008;10.882;2023-04-03T04:50:53;4.30;99.90
32476;DHT22;18929;48.008;10.882;2023-04-03T04:53:20;3.60;99.90
32476;DHT22;18929;48.008;10.882;2023-04-03T04:55:48;4.20;99.90
32476;DHT22;18929;48.008;10.882;2023-04-03T04:58:15;3.30;99.90
32476;DHT22;18929;48.008;10.882;2023-04-03T05:00:42;3.50;99.90
32476;DHT22;18929;48.008;10.882;2023-04-03T05:03:08;4.10;99.90
32476;DHT22;18929;48.008;10.882;2023-04-03T05:05:35;4.10;99.90
32476;DHT22;18929;48.008;10.882;2023-04-03T05:08:02;3.90;99.90
32476;DHT22;18929;48.008;10.882;2023-04-03T05:10:29;3.90;99.90
32476;DHT22;18929;48.008;10.882;2023-04-03T05:12:58;4.30;99.90
32476;DHT22;18929;48.008;10.882;2023-04-03T05:15:25;4.80;99.90
32476;DHT22;18929;48.008;10.882;2023-04-03T05:17:51;3.50;99.90
32476;DHT22;18929;48.008;10.882;2023-04-03T05:20:18;4.10;99.90
32476;DHT22;18929;48.008;10.882;2023-04-03T05:22:45;3.30;99.90
32476;DHT22;18929;48.008;10.882;2023-04-03T05:25:12;3.90;99.90
32476;DHT22;18929;48.008;10.882;2023-04-03T05:27:39;4.40;99.90
32476;DHT22;18929;48.008;10.882;2023-04-03T05:30:08;4.60;99.90
32476;DHT22;18929;48.008;10.882;2023-04-03T05:32:34;3.80;99.90
32476;DHT22;18929;48.008;10.882;2023-04-03T05:35:01;4.10;99.90
32476;DHT22;18929;48.008;10.882;2023-04-03T05:37:28;4.70;99.90
32476;DHT22;18929;48.008;10.882;2023-04-03T05:39:55;4.90;99.90
32476;DHT22;18929;48.008;10.882;2023-04-03T05:42:22;5.20;99.90
32476;DHT22;18929;48.008;10.882;2023-04-03T05:44:49;4.70;99.90
32476;DHT22;18929;48.008;10.882;2023-04-03T05:47:17;5.00;99.90
32476;DHT22;18929;48.008;10.882;2023-04-03T05:49:44;4.70;99.90
32476;DHT22;18929;48.008;10.882;2023-04-03T05:52:12;4.60;99.90
32476;DHT22;18929;48.008;10.882;2023-04-03T05:54:43;4.80;99.90
32476;DHT22;18929;48.008;10.882;2023-04-03T05:57:13;4.30;99.90
32476;DHT22;18929;48.008;10.882;2023-04-03T05:59:41;3.90;99.90
32476;DHT22;18929;48.008;10.882;2023-04-03T06:02:09;3.20;99.90
32476;DHT22;18929;48.008;10.882;2023-04-03T06:04:37;3.90;99.90
32476;DHT22;18929;48.008;10.882;2023-04-03T06:07:04;3.70;99.90
32476;DHT22;18929;48.008;10.882;2023-04-03T06:09:32;3.90;99.90
32476;DHT22;18929;48.008;10.882;2023-04-03T06:11:59;3.10;99.90
32476;DHT22;18929;48.008;10.882;2023-04-03T06:14:27;3.40;99.90
32476;DHT22;18929;48.008;10.882;2023-04-03T06:16:53;4.00;99.90
32476;DHT22;18929;48.008;10.882;2023-04-03T06:19:21;4.10;99.90
32476;DHT22;18929;48.008;10.882;2023-04-03T06:21:49;3.10;99.90
32476;DHT22;18929;48.008;10.882;2023-04-03T06:24:16;3.60;99.90
32476;DHT22;18929;48.008;10.882;2023-04-03T06:26:43;4.20;99.90
32476;DHT22;18929;48.008;10.882;2023-04-03T06:29:10;4.40;99.90
32476;DHT22;18929;48.008;10.882;2023-04-03T06:31:37;4.30;99.90
32476;DHT22;18929;48.008;10.882;2023-04-03T06:34:04;4.50;99.90
32476;DHT22;18929;48.008;10.882;2023-04-03T06:36:31;3.70;99.90
32476;DHT22;18929;48.008;10.882;2023-04-03T06:38:59;3.90;99.90
32476;DHT22;18929;48.008;10.882;2023-04-03T06:41:26;3.90;99.90
32476;DHT22;18929;48.008;10.882;2023-04-03T06:43:53;3.20;99.90
32476;DHT22;18929;48.008;10.882;2023-04-03T06:46:22;2.90;99.90
32476;DHT22;18929;48.008;10.882;2023-04-03T06:48:49;3.10;99.90
32476;DHT22;18929;48.008;10.882;2023-04-03T06:51:17;3.50;99.90
32476;DHT22;18929;48.008;10.882;2023-04-03T06:53:45;3.20;99.90
32476;DHT22;18929;48.008;10.882;2023-04-03T06:56:13;3.70;99.90
32476;DHT22;18929;48.008;10.882;2023-04-03T06:58:41;3.60;99.90
32476;DHT22;18929;48.008;10.882;2023-04-03T07:01:08;3.00;99.90
32476;DHT22;18929;48.008;10.882;2023-04-03T07:03:35;3.60;99.90
32476;DHT22;18929;48.008;10.882;2023-04-03T07:06:02;2.80;99.90
32476;DHT22;18929;48.008;10.882;2023-04-03T07:08:31;2.60;99.90
32476;DHT22;18929;48.008;10.882;2023-04-03T07:10:57;2.80;99.90
32476;DHT22;18929;48.008;10.882;2023-04-03T07:13:26;3.40;99.90
32476;DHT22;18929;48.008;10.882;2023-04-03T07:15:53;3.00;99.90
32476;DHT22;18929;48.008;10.882;2023-04-03T07:18:19;2.80;99.90
32476;DHT22;18929;48.008;10.882;2023-04-03T07:20:46;2.80;99.90
32476;DHT22;18929;48.008;10.882;2023-04-03T07:23:13;3.30;99.90
32476;DHT22;18929;48.008;10.882;2023-04-03T07:25:42;3.20;99.90
32476;DHT22;18929;48.008;10.882;2023-04-03T07:28:08;3.60;99.90
32476;DHT22;18929;48.008;10.882;2023-04-03T07:30:42;3.30;99.90
32476;DHT22;18929;48.008;10.882;2023-04-03T07:33:10;2.80;99.90
32476;DHT22;18929;48.008;10.882;2023-04-03T07:35:38;3.00;99.90
32476;DHT22;18929;48.008;10.882;2023-04-03T07:38:05;3.60;99.90
32476;DHT22;18929;48.008;10.882;2023-04-03T07:40:32;3.50;99.90
32476;DHT22;18929;48.008;10.882;2023-04-03T07:42:59;3.60;99.90
32476;DHT22;18929;48.008;10.882;2023-04-03T07:45:26;3.30;99.90
32476;DHT22;18929;48.008;10.882;2023-04-03T07:47:54;3.60;99.90
32476;DHT22;18929;48.008;10.882;2023-04-03T07:50:21;4.30;99.90
32476;DHT22;18929;48.008;10.882;2023-04-03T07:52:48;3.90;99.90
32476;DHT22;18929;48.008;10.882;2023-04-03T07:55:16;4.00;99.90
32476;DHT22;18929;48.008;10.882;2023-04-03T07:57:43;3.80;99.90
32476;DHT22;18929;48.008;10.882;2023-04-03T08:00:10;3.70;99.90
32476;DHT22;18929;48.008;10.882;2023-04-03T08:02:37;3.20;99.90
32476;DHT22;18929;48.008;10.882;2023-04-03T08:05:06;3.80;99.90
32476;DHT22;18929;48.008;10.882;2023-04-03T08:07:33;3.90;99.90
32476;DHT22;18929;48.008;10.882;2023-04-03T08:09:59;3.80;99.90
32476;DHT22;18929;48.008;10.882;2023-04-03T08:12:26;3.80;99.90
32476;DHT22;18929;48.008;10.882;2023-04-03T08:14:53;4.00;99.90
32476;DHT22;18929;48.008;10.882;2023-04-03T08:17:20;4.10;99.90
32476;DHT22;18929;48.008;10.882;2023-04-03T08:19:47;4.00;99.90
32476;DHT22;18929;48.008;10.882;2023-04-03T08:22:15;4.30;99.90
32476;DHT22;18929;48.008;10.882;2023-04-03T08:24:42;3.70;99.90
32476;DHT22;18929;48.008;10.882;2023-04-03T08:27:09;4.10;99.90
32476;DHT22;18929;48.008;10.882;2023-04-03T08:29:36;4.10;99.90
32476;DHT22;18929;48.008;10.882;2023-04-03T08:32:03;4.10;99.90
32476;DHT22;18929;48.008;10.882;2023-04-03T08:34:31;4.10;99.90
32476;DHT22;18929;48.008;10.882;2023-04-03T08:37:00;3.90;99.90
32476;DHT22;18929;48.008;10.882;2023-04-03T08:39:28;4.30;99.90
32476;DHT22;18929;48.008;10.882;2023-04-03T08:41:55;4.00;99.90
32476;DHT22;18929;48.008;10.882;2023-04-03T08:44:24;3.90;99.90
32476;DHT22;18929;48.008;10.882;2023-04-03T08:46:55;3.60;99.90
32476;DHT22;18929;48.008;10.882;2023-04-03T08:49:24;3.60;99.90
32476;DHT22;18929;48.008;10.882;2023-04-03T08:51:53;4.10;99.90
32476;DHT22;18929;48.008;10.882;2023-04-03T08:54:24;3.90;99.90
32476;DHT22;18929;48.008;10.882;2023-04-03T08:56:56;4.10;99.90
32476;DHT22;18929;48.008;10.882;2023-04-03T08:59:26;4.10;99.90
32476;DHT22;18929;48.008;10.882;2023-04-03T09:01:53;4.70;99.90
32476;DHT22;18929;48.008;10.882;2023-04-03T09:04:20;4.20;99.90
32476;DHT22;18929;48.008;10.882;2023-04-03T09:06:49;4.10;99.90
32476;DHT22;18929;48.008;10.882;2023-04-03T09:09:21;4.40;99.90
32476;DHT22;18929;48.008;10.882;2023-04-03T09:11:54;4.60;99.90
32476;DHT22;18929;48.008;10.882;2023-04-03T09:14:26;4.00;99.90
32476;DHT22;18929;48.008;10.882;2023-04-03T09:16:57;4.40;99.90
32476;DHT22;18929;48.008;10.882;2023-04-03T09:19:30;4.00;99.90
32476;DHT22;18929;48.008;10.882;2023-04-03T09:22:01;4.10;99.90
32476;DHT22;18929;48.008;10.882;2023-04-03T09:24:34;4.00;99.90
32476;DHT22;18929;48.008;10.882;2023-04-03T09:27:03;3.80;99.90
32476;DHT22;18929;48.008;10.882;2023-04-03T09:29:32;4.10;99.90
32476;DHT22;18929;48.008;10.882;2023-04-03T09:32:02;4.60;99.90
32476;DHT22;18929;48.008;10.882;2023-04-03T09:34:30;4.50;99.90
32476;DHT22;18929;48.008;10.882;2023-04-03T09:36:58;4.90;99.90
32476;DHT22;18929;48.008;10.882;2023-04-03T09:39:31;5.10;99.90
32476;DHT22;18929;48.008;10.882;2023-04-03T09:41:59;4.50;99.90
32476;DHT22;18929;48.008;10.882;2023-04-03T09:44:27;4.70;99.90
32476;DHT22;18929;48.008;10.882;2023-04-03T09:46:56;4.20;99.90
32476;DHT22;18929;48.008;10.882;2023-04-03T09:49:23;4.60;99.90
32476;DHT22;18929;48.008;10.882;2023-04-03T09:51:50;4.60;99.90
32476;DHT22;18929;48.008;10.882;2023-04-03T09:54:24;4.20;99.90
32476;DHT22;18929;48.008;10.882;2023-04-03T09:56:51;4.50;99.90
32476;DHT22;18929;48.008;10.882;2023-04-03T09:59:19;5.00;99.90
32476;DHT22;18929;48.008;10.882;2023-04-03T10:01:57;4.80;99.90
32476;DHT22;18929;48.008;10.882;2023-04-03T10:04:24;4.70;99.90
32476;DHT22;18929;48.008;10.882;2023-04-03T10:06:52;4.90;99.90
32476;DHT22;18929;48.008;10.882;2023-04-03T10:09:20;4.50;99.90
32476;DHT22;18929;48.008;10.882;2023-04-03T10:12:03;4.20;99.90
32476;DHT22;18929;48.008;10.882;2023-04-03T10:14:31;4.30;99.90
32476;DHT22;18929;48.008;10.882;2023-04-03T10:17:01;4.00;99.90
32476;DHT22;18929;48.008;10.882;2023-04-03T10:19:32;4.40;99.90
32476;DHT22;18929;48.008;10.882;2023-04-03T10:21:59;4.70;99.90
32476;DHT22;18929;48.008;10.882;2023-04-03T10:24:31;4.70;99.90
32476;DHT22;18929;48.008;10.882;2023-04-03T10:27:02;3.90;99.90
32476;DHT22;18929;48.008;10.882;2023-04-03T10:29:35;4.40;99.90
32476;DHT22;18929;48.008;10.882;2023-04-03T10:32:08;4.10;99.90
32476;DHT22;18929;48.008;10.882;2023-04-03T10:34:39;4.30;99.90
32476;DHT22;18929;48.008;10.882;2023-04-03T10:37:09;4.20;99.90
32476;DHT22;18929;48.008;10.882;2023-04-03T10:39:39;4.50;99.90
32476;DHT22;18929;48.008;10.882;2023-04-03T10:42:10;4.40;99.90
32476;DHT22;18929;48.008;10.882;2023-04-03T10:44:42;3.80;99.90
32476;DHT22;18929;48.008;10.882;2023-04-03T10:47:14;4.10;99.90
32476;DHT22;18929;48.008;10.882;2023-04-03T10:49:45;4.60;99.90
32476;DHT22;18929;48.008;10.882;2023-04-03T10:52:17;4.70;99.90
32476;DHT22;18929;48.008;10.882;2023-04-03T10:54:47;5.00;99.90
32476;DHT22;18929;48.008;10.882;2023-04-03T10:57:16;4.70;99.90
32476;DHT22;18929;48.008;10.882;2023-04-03T10:59:43;4.80;99.90
32476;DHT22;18929;48.008;10.882;2023-04-03T11:02:14;4.60;99.90
32476;DHT22;18929;48.008;10.882;2023-04-03T11:04:42;4.50;99.90
32476;DHT22;18929;48.008;10.882;2023-04-03T11:07:10;4.70;99.90
32476;DHT22;18929;48.008;10.882;2023-04-03T11:09:40;4.60;99.90
32476;DHT22;18929;48.008;10.882;2023-04-03T11:12:10;4.80;99.90
32476;DHT22;18929;48.008;10.882;2023-04-03T11:14:38;5.10;99.90
32476;DHT22;18929;48.008;10.882;2023-04-03T11:17:10;5.40;99.90
32476;DHT22;18929;48.008;10.882;2023-04-03T11:19:41;4.50;99.90
32476;DHT22;18929;48.008;10.882;2023-04-03T11:22:13;4.50;99.90
32476;DHT22;18929;48.008;10.882;2023-04-03T11:24:42;4.90;99.90
32476;DHT22;18929;48.008;10.882;2023-04-03T11:27:11;5.20;99.90
32476;DHT22;18929;48.008;10.882;2023-04-03T11:29:42;5.20;99.90
32476;DHT22;18929;48.008;10.882;2023-04-03T11:32:15;5.00;99.90
32476;DHT22;18929;48.008;10.882;2023-04-03T11:34:49;5.10;99.90
32476;DHT22;18929;48.008;10.882;2023-04-03T11:37:27;5.50;99.90
32476;DHT22;18929;48.008;10.882;2023-04-03T11:39:56;5.20;99.90
32476;DHT22;18929;48.008;10.882;2023-04-03T11:42:29;5.10;99.90
32476;DHT22;18929;48.008;10.882;2023-04-03T11:47:58;5.20;99.90
32476;DHT22;18929;48.008;10.882;2023-04-03T11:50:31;4.40;99.90
32476;DHT22;18929;48.008;10.882;2023-04-03T11:53:02;5.20;99.90
32476;DHT22;18929;48.008;10.882;2023-04-03T11:55:43;4.60;99.90
32476;DHT22;18929;48.008;10.882;2023-04-03T11:58:12;4.90;99.90
32476;DHT22;18929;48.008;10.882;2023-04-03T12:00:46;4.90;99.90
32476;DHT22;18929;48.008;10.882;2023-04-03T12:09:15;5.40;99.90
32476;DHT22;18929;48.008;10.882;2023-04-03T12:11:48;5.00;99.90
32476;DHT22;18929;48.008;10.882;2023-04-03T12:14:15;5.00;99.90
32476;DHT22;18929;48.008;10.882;2023-04-03T12:16:43;5.60;99.90
32476;DHT22;18929;48.008;10.882;2023-04-03T12:19:28;4.10;99.90
32476;DHT22;18929;48.008;10.882;2023-04-03T12:22:06;4.20;99.90
32476;DHT22;18929;48.008;10.882;2023-04-03T12:24:35;4.30;99.90
32476;DHT22;18929;48.008;10.882;2023-04-03T12:27:07;4.30;99.90
32476;DHT22;18929;48.008;10.882;2023-04-03T12:29:37;4.40;99.90
32476;DHT22;18929;48.008;10.882;2023-04-03T12:32:08;4.00;99.90
32476;DHT22;18929;48.008;10.882;2023-04-03T12:34:45;4.20;99.90
32476;DHT22;18929;48.008;10.882;2023-04-03T12:37:19;4.30;99.90
32476;DHT22;18929;48.008;10.882;2023-04-03T12:39:51;4.20;99.90
32476;DHT22;18929;48.008;10.882;2023-04-03T12:42:23;4.70;99.90
32476;DHT22;18929;48.008;10.882;2023-04-03T12:44:56;4.70;99.90
32476;DHT22;18929;48.008;10.882;2023-04-03T12:47:28;4.70;99.90
32476;DHT22;18929;48.008;10.882;2023-04-03T12:49:58;5.00;99.90
32476;DHT22;18929;48.008;10.882;2023-04-03T12:52:32;4.40;99.90
32476;DHT22;18929;48.008;10.882;2023-04-03T12:55:01;4.70;99.90
32476;DHT22;18929;48.008;10.882;2023-04-03T12:57:29;5.20;99.90
32476;DHT22;18929;48.008;10.882;2023-04-03T12:59:57;5.10;99.90
32476;DHT22;18929;48.008;10.882;2023-04-03T13:02:26;4.70;99.90
32476;DHT22;18929;48.008;10.882;2023-04-03T13:04:54;4.40;99.90
32476;DHT22;18929;48.008;10.882;2023-04-03T13:07:24;4.30;99.90
32476;DHT22;18929;48.008;10.882;2023-04-03T13:09:57;4.40;99.90
32476;DHT22;18929;48.008;10.882;2023-04-03T13:12:25;4.90;99.90
32476;DHT22;18929;48.008;10.882;2023-04-03T13:14:52;5.00;99.90
32476;DHT22;18929;48.008;10.882;2023-04-03T13:17:19;4.90;99.90
32476;DHT22;18929;48.008;10.882;2023-04-03T13:19:46;4.40;99.90
32476;DHT22;18929;48.008;10.882;2023-04-03T13:22:18;4.80;99.90
32476;DHT22;18929;48.008;10.882;2023-04-03T13:24:46;4.60;99.90
32476;DHT22;18929;48.008;10.882;2023-04-03T13:27:14;4.40;99.90
32476;DHT22;18929;48.008;10.882;2023-04-03T13:29:42;4.80;99.90
32476;DHT22;18929;48.008;10.882;2023-04-03T13:32:14;4.50;99.90
32476;DHT22;18929;48.008;10.882;2023-04-03T13:34:44;4.90;99.90
32476;DHT22;18929;48.008;10.882;2023-04-03T13:37:18;4.80;99.90
32476;DHT22;18929;48.008;10.882;2023-04-03T13:39:45;4.20;99.90
32476;DHT22;18929;48.008;10.882;2023-04-03T13:42:15;5.00;99.90
32476;DHT22;18929;48.008;10.882;2023-04-03T13:44:44;5.30;99.90
32476;DHT22;18929;48.008;10.882;2023-04-03T13:47:17;4.50;99.90
32476;DHT22;18929;48.008;10.882;2023-04-03T13:49:44;5.10;99.90
32476;DHT22;18929;48.008;10.882;2023-04-03T13:52:22;5.10;99.90
32476;DHT22;18929;48.008;10.882;2023-04-03T13:54:51;5.40;99.90
32476;DHT22;18929;48.008;10.882;2023-04-03T13:57:18;5.50;99.90
32476;DHT22;18929;48.008;10.882;2023-04-03T13:59:47;5.40;99.90
32476;DHT22;18929;48.008;10.882;2023-04-03T14:05:15;5.60;99.90
32476;DHT22;18929;48.008;10.882;2023-04-03T14:07:46;5.40;99.90
32476;DHT22;18929;48.008;10.882;2023-04-03T14:10:13;5.70;99.90
32476;DHT22;18929;48.008;10.882;2023-04-03T14:12:40;6.10;99.90
32476;DHT22;18929;48.008;10.882;2023-04-03T14:15:12;6.10;99.90
32476;DHT22;18929;48.008;10.882;2023-04-03T14:17:41;5.60;99.90
32476;DHT22;18929;48.008;10.882;2023-04-03T14:20:10;5.50;99.90
32476;DHT22;18929;48.008;10.882;2023-04-03T14:22:37;5.40;99.90
32476;DHT22;18929;48.008;10.882;2023-04-03T14:25:04;5.60;99.90
32476;DHT22;18929;48.008;10.882;2023-04-03T14:27:33;6.00;99.90
32476;DHT22;18929;48.008;10.882;2023-04-03T14:30:00;5.60;99.90
32476;DHT22;18929;48.008;10.882;2023-04-03T14:32:30;5.40;99.90
32476;DHT22;18929;48.008;10.882;2023-04-03T14:34:57;5.40;99.90
32476;DHT22;18929;48.008;10.882;2023-04-03T14:37:24;5.90;99.90
32476;DHT22;18929;48.008;10.882;2023-04-03T14:39:52;6.00;99.90
32476;DHT22;18929;48.008;10.882;2023-04-03T14:42:20;6.40;99.90
32476;DHT22;18929;48.008;10.882;2023-04-03T14:44:47;6.40;99.90
32476;DHT22;18929;48.008;10.882;2023-04-03T14:47:14;6.70;99.90
32476;DHT22;18929;48.008;10.882;2023-04-03T14:49:43;6.50;99.90
32476;DHT22;18929;48.008;10.882;2023-04-03T14:52:16;5.70;99.90
32476;DHT22;18929;48.008;10.882;2023-04-03T14:54:44;6.00;99.90
32476;DHT22;18929;48.008;10.882;2023-04-03T14:57:11;5.60;99.90
32476;DHT22;18929;48.008;10.882;2023-04-03T14:59:39;5.40;99.90
32476;DHT22;18929;48.008;10.882;2023-04-03T15:02:10;5.90;99.90
32476;DHT22;18929;48.008;10.882;2023-04-03T15:04:43;5.60;99.90
32476;DHT22;18929;48.008;10.882;2023-04-03T15:07:10;6.00;99.90
32476;DHT22;18929;48.008;10.882;2023-04-03T15:09:37;6.20;99.90
32476;DHT22;18929;48.008;10.882;2023-04-03T15:12:04;5.40;99.90
32476;DHT22;18929;48.008;10.882;2023-04-03T15:14:32;5.30;99.90
32476;DHT22;18929;48.008;10.882;2023-04-03T15:16:59;5.10;99.90
32476;DHT22;18929;48.008;10.882;2023-04-03T15:19:25;5.00;99.90
32476;DHT22;18929;48.008;10.882;2023-04-03T15:21:54;4.60;99.90
32476;DHT22;18929;48.008;10.882;2023-04-03T15:24:21;4.70;99.90
32476;DHT22;18929;48.008;10.882;2023-04-03T15:26:47;5.00;99.90
32476;DHT22;18929;48.008;10.882;2023-04-03T15:29:14;5.20;99.90
32476;DHT22;18929;48.008;10.882;2023-04-03T15:31:41;5.70;99.90
32476;DHT22;18929;48.008;10.882;2023-04-03T15:34:08;5.70;99.90
32476;DHT22;18929;48.008;10.882;2023-04-03T15:36:35;5.30;99.90
32476;DHT22;18929;48.008;10.882;2023-04-03T15:39:03;5.80;99.90
32476;DHT22;18929;48.008;10.882;2023-04-03T15:41:30;5.60;99.90
32476;DHT22;18929;48.008;10.882;2023-04-03T15:43:57;5.50;99.90
32476;DHT22;18929;48.008;10.882;2023-04-03T15:46:23;5.00;99.90
32476;DHT22;18929;48.008;10.882;2023-04-03T15:48:50;5.50;99.90
32476;DHT22;18929;48.008;10.882;2023-04-03T15:51:17;5.30;99.90
32476;DHT22;18929;48.008;10.882;2023-04-03T15:53:44;5.50;99.90
32476;DHT22;18929;48.008;10.882;2023-04-03T15:56:12;5.30;99.90